Time;durP1;ratioP1;P1;durP2;ratioP2;P2;SDS_P1;SDS_P2;PMS_P1;PMS_P2;Temp;Humidity;BMP_temperature;BMP_pressure;BME280_temperature;BME280_humidity;BME280_pressure;Samples;Min_cycle;Max_cycle;Signal;HPM_P1;HPM_P2
2023/09/12 00:00:11;;;;;;;9.93;5.00;;;;;;;;;;481946;28;1347;-79
2023/09/12 00:00:26;;;;;;;10.82;5.07;;;;;;;;;;483627;28;1057;-79
2023/09/12 00:00:42;;;;;;;9.77;5.20;;;;;;;;;;484190;28;1251;-79
2023/09/12 00:01:04;;;;;;;8.90;4.97;;;;;;;;;;483078;28;1345;-79
2023/09/12 00:01:20;;;;;;;9.65;5.00;;;;;;;;;;485373;28;926;-79
2023/09/12 00:01:36;;;;;;;7.77;4.87;;;;;;;;;;487910;28;1281;-79
2023/09/12 00:01:51;;;;;;;6.88;4.90;;;;;;;;;;487779;28;2012;-78
2023/09/12 00:02:06;;;;;;;8.27;5.10;;;;;;;;;;486856;28;987;-79
2023/09/12 00:02:22;;;;;;;9.77;5.20;;;;;;;;;;486740;28;1147;-79
2023/09/12 00:02:38;;;;;;;9.50;4.90;;;;;;;;;;488193;28;1308;-79
2023/09/12 00:02:53;;;;;;;8.00;4.80;;;;;;;;;;488172;28;943;-79
2023/09/12 00:03:09;;;;;;;7.53;4.83;;;;;;;;;;485811;28;1225;-79
2023/09/12 00:03:24;;;;;;;8.48;5.10;;;;;;;;;;487098;28;1145;-79
2023/09/12 00:03:40;;;;;;;9.23;5.07;;;;;;;;;;485654;28;1276;-79
2023/09/12 00:03:56;;;;;;;8.15;4.68;;;;;;;;;;484343;28;1138;-78
2023/09/12 00:04:11;;;;;;;6.72;4.78;;;;;;;;;;481426;28;1122;-79
2023/09/12 00:04:28;;;;;;;8.17;4.90;;;;;;;;;;480043;28;1375;-79
2023/09/12 00:04:45;;;;;;;11.80;4.93;;;;;;;;;;480598;28;1101;-79
2023/09/12 00:05:00;;;;;;;10.07;4.80;;;;;;;;;;479169;28;1088;-79
2023/09/12 00:05:16;;;;;;;8.13;4.90;;;;;;;;;;477765;28;1543;-79
2023/09/12 00:05:32;;;;;;;7.40;4.90;;;;;;;;;;481375;28;970;-79
2023/09/12 00:05:54;;;;;;;8.00;4.95;;;;;;;;;;482539;28;1058;-79
2023/09/12 00:06:09;;;;;;;9.02;5.10;;;;;;;;;;482366;28;1174;-78
2023/09/12 00:06:25;;;;;;;9.67;5.17;;;;;;;;;;483317;28;1193;-78
2023/09/12 00:06:41;;;;;;;10.55;5.05;;;;;;;;;;486161;28;1404;-79
2023/09/12 00:06:56;;;;;;;7.73;4.50;;;;;;;;;;486024;28;1178;-79
2023/09/12 00:07:12;;;;;;;6.53;4.32;;;;;;;;;;484777;28;1291;-79
2023/09/12 00:07:30;;;;;;;8.10;4.53;;;;;;;;;;487477;28;1104;-79
2023/09/12 00:07:46;;;;;;;8.75;4.95;;;;;;;;;;488465;28;1085;-79
2023/09/12 00:08:03;;;;;;;7.50;4.60;;;;;;;;;;485052;28;1259;-79
2023/09/12 00:08:19;;;;;;;6.90;4.18;;;;;;;;;;483654;28;1179;-79
2023/09/12 00:08:34;;;;;;;8.00;4.57;;;;;;;;;;484113;28;1188;-79
2023/09/12 00:08:52;;;;;;;8.05;4.90;;;;;;;;;;483236;28;1381;-79
2023/09/12 00:09:08;;;;;;;6.55;4.60;;;;;;;;;;483372;28;1140;-77
2023/09/12 00:09:24;;;;;;;8.52;4.60;;;;;;;;;;483911;28;1159;-77
2023/09/12 00:09:40;;;;;;;9.52;4.82;;;;;;;;;;480306;28;1178;-78
2023/09/12 00:09:55;;;;;;;9.33;5.10;;;;;;;;;;477936;28;1306;-77
2023/09/12 00:10:11;;;;;;;10.20;5.35;;;;;;;;;;477778;28;1217;-77
2023/09/12 00:10:26;;;;;;;8.27;5.10;;;;;;;;;;480119;28;1116;-78
2023/09/12 00:10:42;;;;;;;7.32;4.72;;;;;;;;;;481956;28;1335;-77
2023/09/12 00:11:05;;;;;;;8.63;4.60;;;;;;;;;;479528;28;1325;-78
2023/09/12 00:11:20;;;;;;;8.43;4.80;;;;;;;;;;478150;28;1101;-77
2023/09/12 00:11:36;;;;;;;8.93;4.95;;;;;;;;;;482210;28;1079;-77
2023/09/12 00:11:52;;;;;;;10.27;5.13;;;;;;;;;;481795;28;1186;-77
2023/09/12 00:12:07;;;;;;;10.57;5.20;;;;;;;;;;481161;28;1253;-76
2023/09/12 00:12:26;;;;;;;9.45;5.05;;;;;;;;;;483497;28;1046;-77
2023/09/12 00:12:41;;;;;;;8.10;4.88;;;;;;;;;;483485;28;1187;-78
2023/09/12 00:12:58;;;;;;;8.00;4.68;;;;;;;;;;482165;28;1115;-77
2023/09/12 00:13:13;;;;;;;7.82;4.90;;;;;;;;;;480347;28;994;-78
2023/09/12 00:13:31;;;;;;;8.85;5.30;;;;;;;;;;481217;28;1030;-77
2023/09/12 00:13:46;;;;;;;8.65;5.03;;;;;;;;;;481596;28;1336;-77
2023/09/12 00:14:02;;;;;;;8.85;5.00;;;;;;;;;;482153;28;1154;-77
2023/09/12 00:14:18;;;;;;;10.13;5.00;;;;;;;;;;479428;28;1294;-77
2023/09/12 00:14:34;;;;;;;9.60;4.88;;;;;;;;;;482956;28;1145;-77
2023/09/12 00:14:49;;;;;;;8.70;4.88;;;;;;;;;;483790;28;1023;-77
2023/09/12 00:15:07;;;;;;;8.65;4.88;;;;;;;;;;476900;28;1227;-77
2023/09/12 00:15:22;;;;;;;9.23;5.20;;;;;;;;;;475774;28;1438;-77
2023/09/12 00:15:38;;;;;;;9.00;5.07;;;;;;;;;;473863;28;992;-77
2023/09/12 00:15:54;;;;;;;8.25;4.70;;;;;;;;;;474221;28;1312;-77
2023/09/12 00:16:10;;;;;;;7.23;4.50;;;;;;;;;;478000;28;1118;-77
2023/09/12 00:16:26;;;;;;;6.97;4.82;;;;;;;;;;485331;28;1045;-77
2023/09/12 00:16:41;;;;;;;7.22;5.10;;;;;;;;;;484301;28;1096;-77
2023/09/12 00:16:57;;;;;;;8.30;5.13;;;;;;;;;;484402;28;1126;-78
2023/09/12 00:17:12;;;;;;;7.45;4.90;;;;;;;;;;481594;28;1257;-77
2023/09/12 00:17:28;;;;;;;6.70;4.60;;;;;;;;;;484144;28;1374;-77
2023/09/12 00:17:44;;;;;;;8.27;4.80;;;;;;;;;;482926;28;1144;-78
2023/09/12 00:18:00;;;;;;;8.65;5.10;;;;;;;;;;484283;28;1250;-77
2023/09/12 00:18:16;;;;;;;9.07;5.10;;;;;;;;;;482655;28;1221;-78
2023/09/12 00:18:34;;;;;;;8.63;5.07;;;;;;;;;;485410;28;1437;-77
2023/09/12 00:18:50;;;;;;;7.80;5.15;;;;;;;;;;485756;28;1101;-78
2023/09/12 00:19:05;;;;;;;7.50;5.00;;;;;;;;;;485509;28;1204;-77
2023/09/12 00:19:21;;;;;;;7.63;4.78;;;;;;;;;;483150;28;1148;-77
2023/09/12 00:19:36;;;;;;;9.13;4.90;;;;;;;;;;480709;28;1108;-77
2023/09/12 00:19:52;;;;;;;9.48;5.15;;;;;;;;;;481287;28;1378;-77
2023/09/12 00:20:08;;;;;;;10.77;5.25;;;;;;;;;;480040;28;1144;-77
2023/09/12 00:20:23;;;;;;;11.83;5.13;;;;;;;;;;480957;28;1176;-77
2023/09/12 00:20:39;;;;;;;9.93;4.97;;;;;;;;;;484062;28;1000;-77
2023/09/12 00:20:55;;;;;;;8.60;5.07;;;;;;;;;;483051;28;1158;-77
2023/09/12 00:21:10;;;;;;;8.70;5.28;;;;;;;;;;483473;28;1355;-77
2023/09/12 00:21:26;;;;;;;9.03;5.20;;;;;;;;;;484908;28;1093;-77
2023/09/12 00:21:41;;;;;;;8.57;5.30;;;;;;;;;;486064;28;1422;-77
2023/09/12 00:21:57;;;;;;;7.87;5.00;;;;;;;;;;487524;28;2001;-77
2023/09/12 00:22:13;;;;;;;8.40;5.00;;;;;;;;;;484710;28;1270;-78
2023/09/12 00:22:28;;;;;;;9.50;5.13;;;;;;;;;;484258;28;1334;-78
2023/09/12 00:22:45;;;;;;;10.45;5.07;;;;;;;;;;485096;28;1332;-77
2023/09/12 00:23:04;;;;;;;8.13;5.07;;;;;;;;;;482195;28;1139;-77
2023/09/12 00:23:25;;;;;;;8.63;5.40;;;;;;;;;;480822;28;1080;-77
2023/09/12 00:23:40;;;;;;;9.10;5.32;;;;;;;;;;483858;28;1247;-77
2023/09/12 00:23:56;;;;;;;7.60;5.00;;;;;;;;;;482912;28;1216;-77
2023/09/12 00:24:12;;;;;;;8.60;5.30;;;;;;;;;;481660;28;1204;-77
2023/09/12 00:24:27;;;;;;;10.00;5.37;;;;;;;;;;482969;28;1124;-78
2023/09/12 00:24:43;;;;;;;9.40;5.55;;;;;;;;;;486340;28;1403;-78
2023/09/12 00:24:58;;;;;;;8.93;5.50;;;;;;;;;;483779;28;1225;-77
2023/09/12 00:25:14;;;;;;;9.05;5.20;;;;;;;;;;477824;28;1362;-77
2023/09/12 00:25:30;;;;;;;8.18;5.03;;;;;;;;;;478518;28;923;-78
2023/09/12 00:25:46;;;;;;;7.00;5.00;;;;;;;;;;479014;28;1222;-78
2023/09/12 00:26:02;;;;;;;8.27;5.10;;;;;;;;;;478876;28;1038;-77
2023/09/12 00:26:17;;;;;;;8.33;5.00;;;;;;;;;;477467;28;1487;-77
2023/09/12 00:26:33;;;;;;;6.70;4.88;;;;;;;;;;477572;28;1302;-77
2023/09/12 00:26:48;;;;;;;6.40;4.90;;;;;;;;;;481116;28;1102;-77
2023/09/12 00:27:05;;;;;;;8.32;4.90;;;;;;;;;;480967;28;1082;-77
2023/09/12 00:27:21;;;;;;;9.90;4.90;;;;;;;;;;479630;28;1212;-77
2023/09/12 00:27:36;;;;;;;10.15;5.28;;;;;;;;;;482797;28;1219;-77
2023/09/12 00:27:52;;;;;;;10.65;5.38;;;;;;;;;;483009;28;1302;-77
2023/09/12 00:28:07;;;;;;;9.00;5.03;;;;;;;;;;481365;28;1191;-76
2023/09/12 00:28:23;;;;;;;7.03;4.85;;;;;;;;;;481758;28;923;-77
2023/09/12 00:28:38;;;;;;;8.60;4.90;;;;;;;;;;480600;28;1337;-77
2023/09/12 00:28:54;;;;;;;8.20;5.13;;;;;;;;;;479972;28;1178;-77
2023/09/12 00:29:09;;;;;;;7.53;5.20;;;;;;;;;;478162;28;1118;-77
2023/09/12 00:29:26;;;;;;;8.20;5.30;;;;;;;;;;475048;28;1243;-77
2023/09/12 00:29:42;;;;;;;7.93;5.10;;;;;;;;;;478304;28;1329;-77
2023/09/12 00:29:57;;;;;;;8.05;5.00;;;;;;;;;;478628;28;1208;-78
2023/09/12 00:30:16;;;;;;;7.65;5.05;;;;;;;;;;475910;28;1019;-78
2023/09/12 00:30:33;;;;;;;10.20;5.05;;;;;;;;;;477061;28;1264;-77
2023/09/12 00:30:48;;;;;;;10.52;4.75;;;;;;;;;;478690;28;1527;-78
2023/09/12 00:31:04;;;;;;;8.60;4.90;;;;;;;;;;480110;28;1333;-78
2023/09/12 00:31:19;;;;;;;8.13;5.00;;;;;;;;;;478614;28;1283;-78
2023/09/12 00:31:35;;;;;;;8.60;4.80;;;;;;;;;;479439;28;1065;-78
2023/09/12 00:31:51;;;;;;;8.13;4.70;;;;;;;;;;481570;28;1246;-77
2023/09/12 00:32:06;;;;;;;7.20;4.60;;;;;;;;;;480551;28;1146;-77
2023/09/12 00:32:22;;;;;;;6.07;4.57;;;;;;;;;;481636;28;1102;-77
2023/09/12 00:32:37;;;;;;;6.55;4.63;;;;;;;;;;481982;28;1185;-77
2023/09/12 00:32:53;;;;;;;6.43;4.30;;;;;;;;;;484688;28;1216;-77
2023/09/12 00:33:08;;;;;;;5.93;4.45;;;;;;;;;;483196;28;1194;-77
2023/09/12 00:33:24;;;;;;;7.40;4.70;;;;;;;;;;484696;28;1159;-77
2023/09/12 00:33:40;;;;;;;7.15;4.90;;;;;;;;;;485513;28;1084;-77
2023/09/12 00:33:56;;;;;;;7.25;5.03;;;;;;;;;;485513;28;1143;-77
2023/09/12 00:34:17;;;;;;;8.60;4.90;;;;;;;;;;481972;28;1193;-77
2023/09/12 00:34:32;;;;;;;11.25;5.13;;;;;;;;;;483811;28;1400;-78
2023/09/12 00:34:48;;;;;;;9.38;5.30;;;;;;;;;;482560;28;1337;-77
2023/09/12 00:35:04;;;;;;;7.75;5.15;;;;;;;;;;482575;28;1219;-77
2023/09/12 00:35:19;;;;;;;7.25;5.00;;;;;;;;;;482037;28;1072;-77
2023/09/12 00:35:35;;;;;;;7.45;5.18;;;;;;;;;;483868;28;1106;-77
2023/09/12 00:35:51;;;;;;;7.95;5.05;;;;;;;;;;483862;28;972;-77
2023/09/12 00:36:07;;;;;;;7.55;4.47;;;;;;;;;;483735;28;1134;-77
2023/09/12 00:36:22;;;;;;;5.60;4.10;;;;;;;;;;485109;28;1284;-78
2023/09/12 00:36:38;;;;;;;6.00;4.43;;;;;;;;;;485203;28;1065;-78
2023/09/12 00:36:54;;;;;;;7.18;4.95;;;;;;;;;;484273;28;1144;-77
2023/09/12 00:37:11;;;;;;;7.50;5.17;;;;;;;;;;483955;28;944;-78
2023/09/12 00:37:27;;;;;;;8.20;5.30;;;;;;;;;;485288;28;1086;-78
2023/09/12 00:37:43;;;;;;;9.60;5.15;;;;;;;;;;480518;28;1354;-78
2023/09/12 00:37:58;;;;;;;9.30;4.80;;;;;;;;;;478633;28;965;-77
2023/09/12 00:38:14;;;;;;;7.57;4.68;;;;;;;;;;476732;28;1219;-78
2023/09/12 00:38:30;;;;;;;6.50;4.60;;;;;;;;;;480226;28;1133;-78
2023/09/12 00:38:46;;;;;;;7.60;4.90;;;;;;;;;;480860;28;1036;-78
2023/09/12 00:39:01;;;;;;;8.80;4.70;;;;;;;;;;480033;28;1201;-77
2023/09/12 00:39:17;;;;;;;8.32;4.72;;;;;;;;;;480254;28;1179;-78
2023/09/12 00:39:32;;;;;;;8.43;4.90;;;;;;;;;;480211;28;1076;-78
2023/09/12 00:39:48;;;;;;;8.63;4.82;;;;;;;;;;481780;28;1279;-78
2023/09/12 00:40:04;;;;;;;7.90;4.93;;;;;;;;;;478196;28;1314;-78
2023/09/12 00:40:21;;;;;;;7.68;4.97;;;;;;;;;;477570;28;1271;-78
2023/09/12 00:40:37;;;;;;;5.95;4.70;;;;;;;;;;478183;28;1397;-78
2023/09/12 00:40:53;;;;;;;5.13;4.10;;;;;;;;;;476295;28;1163;-78
2023/09/12 00:41:08;;;;;;;5.07;3.92;;;;;;;;;;478260;28;1247;-77
2023/09/12 00:41:24;;;;;;;5.97;4.20;;;;;;;;;;476686;28;1046;-77
2023/09/12 00:41:39;;;;;;;5.78;4.35;;;;;;;;;;479401;28;1151;-78
2023/09/12 00:41:55;;;;;;;5.13;4.38;;;;;;;;;;480057;28;2003;-77
2023/09/12 00:42:11;;;;;;;5.43;4.50;;;;;;;;;;478357;28;1166;-77
2023/09/12 00:42:27;;;;;;;6.13;4.60;;;;;;;;;;479493;28;1066;-77
2023/09/12 00:42:43;;;;;;;5.37;4.20;;;;;;;;;;481427;28;1096;-77
2023/09/12 00:42:59;;;;;;;5.38;4.20;;;;;;;;;;483212;28;1061;-77
2023/09/12 00:43:15;;;;;;;6.47;4.65;;;;;;;;;;481256;28;1209;-77
2023/09/12 00:43:31;;;;;;;9.90;5.33;;;;;;;;;;485598;28;1599;-78
2023/09/12 00:43:46;;;;;;;10.73;5.32;;;;;;;;;;483332;28;1464;-77
2023/09/12 00:44:02;;;;;;;8.18;4.90;;;;;;;;;;481292;28;1298;-77
2023/09/12 00:44:18;;;;;;;8.13;5.00;;;;;;;;;;479414;28;1199;-78
2023/09/12 00:44:33;;;;;;;7.82;5.10;;;;;;;;;;479805;28;1267;-77
2023/09/12 00:44:49;;;;;;;10.27;5.40;;;;;;;;;;482521;28;1108;-77
2023/09/12 00:45:05;;;;;;;12.50;5.70;;;;;;;;;;479709;28;1223;-77
2023/09/12 00:45:20;;;;;;;10.25;5.50;;;;;;;;;;479992;28;1111;-77
2023/09/12 00:45:37;;;;;;;10.50;5.30;;;;;;;;;;479906;28;1249;-78
2023/09/12 00:45:52;;;;;;;9.57;5.10;;;;;;;;;;480985;28;1043;-77
2023/09/12 00:46:08;;;;;;;9.40;5.03;;;;;;;;;;481043;28;1217;-77
2023/09/12 00:46:24;;;;;;;9.40;5.10;;;;;;;;;;481644;28;1052;-77
2023/09/12 00:46:40;;;;;;;8.38;5.20;;;;;;;;;;479113;28;1203;-77
2023/09/12 00:46:57;;;;;;;8.45;5.40;;;;;;;;;;481213;28;1081;-77
2023/09/12 00:47:14;;;;;;;10.75;5.45;;;;;;;;;;481133;28;971;-78
2023/09/12 00:47:31;;;;;;;10.82;5.35;;;;;;;;;;483045;28;1395;-77
2023/09/12 00:47:47;;;;;;;10.05;5.40;;;;;;;;;;484382;28;1169;-77
2023/09/12 00:48:05;;;;;;;8.55;5.45;;;;;;;;;;483156;28;1173;-77
2023/09/12 00:48:21;;;;;;;7.13;5.20;;;;;;;;;;479235;28;1586;-77
2023/09/12 00:48:38;;;;;;;8.02;5.18;;;;;;;;;;483330;28;1206;-77
2023/09/12 00:48:56;;;;;;;7.43;5.15;;;;;;;;;;481956;28;1288;-77
2023/09/12 00:49:13;;;;;;;6.85;5.30;;;;;;;;;;478374;28;996;-77
2023/09/12 00:49:29;;;;;;;7.93;5.15;;;;;;;;;;482530;28;1408;-77
2023/09/12 00:49:45;;;;;;;7.65;5.28;;;;;;;;;;481291;28;1275;-78
2023/09/12 00:50:04;;;;;;;7.68;5.30;;;;;;;;;;482189;28;1276;-77
2023/09/12 00:50:23;;;;;;;8.43;5.15;;;;;;;;;;477904;28;1093;-77
2023/09/12 00:50:40;;;;;;;8.50;5.22;;;;;;;;;;480230;28;1134;-77
2023/09/12 00:50:56;;;;;;;8.40;5.13;;;;;;;;;;479341;28;1153;-77
2023/09/12 00:51:14;;;;;;;7.05;4.85;;;;;;;;;;477617;28;1552;-77
2023/09/12 00:51:32;;;;;;;7.13;5.18;;;;;;;;;;481872;28;1182;-77
2023/09/12 00:51:50;;;;;;;7.93;5.25;;;;;;;;;;482913;28;1170;-77
2023/09/12 00:52:06;;;;;;;8.60;5.25;;;;;;;;;;477974;28;1206;-77
2023/09/12 00:52:25;;;;;;;8.55;5.20;;;;;;;;;;471176;28;1315;-77
2023/09/12 00:52:42;;;;;;;9.02;5.10;;;;;;;;;;471656;29;1135;-77
2023/09/12 00:52:59;;;;;;;8.95;4.90;;;;;;;;;;471822;28;1082;-77
2023/09/12 00:53:15;;;;;;;10.10;5.00;;;;;;;;;;473400;28;1184;-77
2023/09/12 00:53:31;;;;;;;10.18;5.30;;;;;;;;;;471707;29;1125;-77
2023/09/12 00:53:47;;;;;;;8.75;5.32;;;;;;;;;;474338;29;1097;-77
2023/09/12 00:54:03;;;;;;;8.73;5.50;;;;;;;;;;478675;28;1176;-77
2023/09/12 00:54:19;;;;;;;8.90;5.47;;;;;;;;;;481708;28;1221;-78
2023/09/12 00:54:34;;;;;;;9.07;5.40;;;;;;;;;;481822;28;1088;-77
2023/09/12 00:54:51;;;;;;;9.35;5.32;;;;;;;;;;481099;28;1344;-78
2023/09/12 00:55:07;;;;;;;10.13;5.40;;;;;;;;;;479054;28;1206;-77
2023/09/12 00:55:22;;;;;;;8.93;5.40;;;;;;;;;;480021;28;1197;-77
2023/09/12 00:55:43;;;;;;;7.80;5.30;;;;;;;;;;481622;28;1074;-77
2023/09/12 00:55:59;;;;;;;7.65;5.40;;;;;;;;;;482857;28;1172;-77
2023/09/12 00:56:14;;;;;;;7.18;5.15;;;;;;;;;;481217;28;1289;-77
2023/09/12 00:56:30;;;;;;;7.97;5.20;;;;;;;;;;484021;28;976;-77
2023/09/12 00:56:46;;;;;;;8.95;5.25;;;;;;;;;;484425;28;940;-77
2023/09/12 00:57:03;;;;;;;9.63;5.20;;;;;;;;;;483686;28;1214;-77
2023/09/12 00:57:23;;;;;;;9.15;4.90;;;;;;;;;;483639;28;1066;-78
2023/09/12 00:57:40;;;;;;;8.75;4.90;;;;;;;;;;484840;28;983;-77
2023/09/12 00:57:55;;;;;;;8.68;5.18;;;;;;;;;;486777;28;1281;-77
2023/09/12 00:58:11;;;;;;;9.00;5.33;;;;;;;;;;483607;28;1077;-77
2023/09/12 00:58:27;;;;;;;8.03;5.40;;;;;;;;;;486745;28;1238;-77
2023/09/12 00:58:43;;;;;;;7.15;5.00;;;;;;;;;;484426;28;1410;-77
2023/09/12 00:58:59;;;;;;;7.68;5.00;;;;;;;;;;485306;28;1205;-77
2023/09/12 00:59:17;;;;;;;9.57;5.30;;;;;;;;;;479857;28;1304;-78
2023/09/12 00:59:33;;;;;;;10.45;5.40;;;;;;;;;;475369;28;1256;-78
2023/09/12 00:59:49;;;;;;;8.98;5.30;;;;;;;;;;475474;29;1055;-77
2023/09/12 01:00:12;;;;;;;8.57;5.30;;;;;;;;;;474511;29;1147;-77
2023/09/12 01:00:27;;;;;;;9.10;5.30;;;;;;;;;;481660;28;1414;-78
2023/09/12 01:00:43;;;;;;;9.57;5.47;;;;;;;;;;482932;28;1122;-79
2023/09/12 01:00:59;;;;;;;10.13;5.60;;;;;;;;;;483057;28;1276;-79
2023/09/12 01:01:14;;;;;;;9.48;5.28;;;;;;;;;;481209;28;1280;-79
2023/09/12 01:01:32;;;;;;;7.93;5.17;;;;;;;;;;483070;28;1263;-79
2023/09/12 01:01:48;;;;;;;6.85;5.10;;;;;;;;;;484102;28;1299;-79
2023/09/12 01:02:03;;;;;;;7.53;5.20;;;;;;;;;;484353;28;1034;-79
2023/09/12 01:02:20;;;;;;;8.27;5.30;;;;;;;;;;482827;28;1193;-79
2023/09/12 01:03:03;;;;;;;7.82;5.13;;;;;;;;;;485405;28;1974;-75
2023/09/12 01:03:18;;;;;;;8.30;5.03;;;;;;;;;;479000;28;1122;-75
2023/09/12 01:03:35;;;;;;;7.63;4.90;;;;;;;;;;486581;28;1235;-75
2023/09/12 01:03:50;;;;;;;8.02;5.03;;;;;;;;;;486428;28;1244;-75
2023/09/12 01:04:06;;;;;;;8.75;5.20;;;;;;;;;;486944;28;1207;-77
2023/09/12 01:04:22;;;;;;;9.75;5.20;;;;;;;;;;483955;28;1333;-77
2023/09/12 01:04:38;;;;;;;8.93;5.10;;;;;;;;;;483042;28;1364;-77
2023/09/12 01:04:53;;;;;;;7.00;4.97;;;;;;;;;;483975;28;1041;-77
2023/09/12 01:05:10;;;;;;;7.00;5.10;;;;;;;;;;483543;28;1234;-77
2023/09/12 01:05:27;;;;;;;6.90;4.93;;;;;;;;;;483040;28;1198;-77
2023/09/12 01:05:44;;;;;;;6.25;4.72;;;;;;;;;;483632;28;1375;-77
2023/09/12 01:06:00;;;;;;;6.57;4.57;;;;;;;;;;484386;28;1082;-77
2023/09/12 01:06:20;;;;;;;8.43;4.85;;;;;;;;;;486241;28;1071;-77
2023/09/12 01:06:37;;;;;;;8.93;5.30;;;;;;;;;;475969;28;1487;-77
2023/09/12 01:06:53;;;;;;;8.52;5.00;;;;;;;;;;475946;28;1153;-77
2023/09/12 01:07:08;;;;;;;7.90;5.05;;;;;;;;;;473561;29;1179;-77
2023/09/12 01:07:24;;;;;;;8.30;5.22;;;;;;;;;;471852;29;1156;-77
2023/09/12 01:07:39;;;;;;;7.10;5.17;;;;;;;;;;475248;28;1153;-77
2023/09/12 01:07:56;;;;;;;7.25;5.28;;;;;;;;;;476468;28;1201;-77
2023/09/12 01:08:12;;;;;;;8.38;5.28;;;;;;;;;;474925;28;990;-77
2023/09/12 01:08:27;;;;;;;7.68;5.18;;;;;;;;;;474940;28;1251;-77
2023/09/12 01:08:43;;;;;;;7.28;5.22;;;;;;;;;;475456;29;1235;-77
2023/09/12 01:08:58;;;;;;;8.20;5.10;;;;;;;;;;474858;29;1237;-77
2023/09/12 01:09:14;;;;;;;8.45;5.22;;;;;;;;;;474776;28;1112;-77
2023/09/12 01:09:30;;;;;;;7.50;5.27;;;;;;;;;;482906;28;1011;-77
2023/09/12 01:09:45;;;;;;;8.13;5.13;;;;;;;;;;483171;28;1207;-76
2023/09/12 01:10:02;;;;;;;9.18;5.25;;;;;;;;;;482667;28;1102;-77
2023/09/12 01:10:18;;;;;;;9.45;5.25;;;;;;;;;;483531;28;1131;-77
2023/09/12 01:10:33;;;;;;;9.77;5.40;;;;;;;;;;476298;28;984;-77
2023/09/12 01:10:52;;;;;;;8.23;5.40;;;;;;;;;;477404;28;1119;-77
2023/09/12 01:11:08;;;;;;;7.55;5.20;;;;;;;;;;478609;28;1069;-77
2023/09/12 01:11:24;;;;;;;8.23;5.20;;;;;;;;;;480359;28;1116;-77
2023/09/12 01:11:40;;;;;;;8.43;5.05;;;;;;;;;;487607;28;1100;-77
2023/09/12 01:11:56;;;;;;;7.97;5.13;;;;;;;;;;486258;28;1188;-77
2023/09/12 01:12:14;;;;;;;7.93;5.20;;;;;;;;;;487825;28;1451;-77
2023/09/12 01:12:30;;;;;;;9.70;5.00;;;;;;;;;;478825;28;1092;-77
2023/09/12 01:12:45;;;;;;;10.52;5.07;;;;;;;;;;473535;28;1364;-77
2023/09/12 01:13:01;;;;;;;9.33;5.33;;;;;;;;;;474214;28;1236;-77
2023/09/12 01:13:17;;;;;;;9.90;5.55;;;;;;;;;;473598;29;1257;-77
2023/09/12 01:13:32;;;;;;;9.73;5.13;;;;;;;;;;483629;28;994;-77
2023/09/12 01:13:47;;;;;;;8.37;5.20;;;;;;;;;;481721;28;1227;-77
2023/09/12 01:14:03;;;;;;;8.43;5.30;;;;;;;;;;483082;28;1224;-77
2023/09/12 01:14:18;;;;;;;8.35;5.10;;;;;;;;;;481336;28;1108;-77
2023/09/12 01:14:34;;;;;;;6.33;4.63;;;;;;;;;;473719;29;1348;-77
2023/09/12 01:14:50;;;;;;;5.80;4.47;;;;;;;;;;474240;28;1205;-77
2023/09/12 01:15:13;;;;;;;7.30;4.80;;;;;;;;;;473869;29;1253;-77
2023/09/12 01:15:28;;;;;;;7.05;4.82;;;;;;;;;;474579;29;1070;-77
2023/09/12 01:15:43;;;;;;;7.28;4.57;;;;;;;;;;474865;28;1207;-77
2023/09/12 01:15:59;;;;;;;5.73;4.37;;;;;;;;;;475988;28;1042;-76
2023/09/12 01:16:15;;;;;;;6.75;4.60;;;;;;;;;;475990;28;964;-77
2023/09/12 01:16:30;;;;;;;8.30;5.03;;;;;;;;;;484402;28;1172;-77
2023/09/12 01:16:46;;;;;;;8.70;5.22;;;;;;;;;;485440;28;1209;-77
2023/09/12 01:17:02;;;;;;;9.67;5.20;;;;;;;;;;484063;28;1217;-77
2023/09/12 01:17:17;;;;;;;7.70;4.97;;;;;;;;;;480040;28;1036;-77
2023/09/12 01:17:33;;;;;;;8.47;5.07;;;;;;;;;;482701;28;1221;-77
2023/09/12 01:17:48;;;;;;;9.47;5.23;;;;;;;;;;482799;28;1306;-77
2023/09/12 01:18:04;;;;;;;7.10;4.90;;;;;;;;;;479853;28;1335;-77
2023/09/12 01:18:19;;;;;;;6.18;4.63;;;;;;;;;;481485;28;1105;-77
2023/09/12 01:18:36;;;;;;;6.70;4.73;;;;;;;;;;480131;28;1219;-77
2023/09/12 01:18:51;;;;;;;7.18;5.10;;;;;;;;;;481953;28;1733;-77
2023/09/12 01:19:09;;;;;;;7.50;5.35;;;;;;;;;;480304;28;1291;-77
2023/09/12 01:19:25;;;;;;;7.45;4.95;;;;;;;;;;481495;28;1114;-77
2023/09/12 01:19:40;;;;;;;5.63;4.47;;;;;;;;;;481498;28;1279;-77
2023/09/12 01:19:56;;;;;;;5.28;4.43;;;;;;;;;;481428;28;1084;-77
2023/09/12 01:20:17;;;;;;;6.13;4.70;;;;;;;;;;479958;28;1153;-77
2023/09/12 01:20:35;;;;;;;7.38;4.78;;;;;;;;;;471743;28;1324;-77
2023/09/12 01:21:38;;;;;;;8.05;5.10;;;;;;;;;;473964;28;1141;-77
2023/09/12 01:22:04;;;;;;;7.80;5.25;;;;;;;;;;484423;28;1945;-77
2023/09/12 01:22:58;;;;;;;8.30;5.60;;;;;;;;;;484837;28;1113;-78
2023/09/12 01:23:40;;;;;;;5.53;4.30;;;;;;;;;;482678;28;1378;-77
2023/09/12 01:24:29;;;;;;;9.20;5.38;;;;;;;;;;472599;28;1475;-77
2023/09/12 01:24:51;;;;;;;8.73;5.47;;;;;;;;;;472858;28;1269;-77
2023/09/12 01:25:42;;;;;;;9.88;5.80;;;;;;;;;;472676;28;1085;-77
2023/09/12 01:26:20;;;;;;;7.93;5.38;;;;;;;;;;474082;28;1323;-77
2023/09/12 01:27:09;;;;;;;9.18;5.10;;;;;;;;;;472006;29;1163;-77
2023/09/12 01:27:30;;;;;;;10.77;5.60;;;;;;;;;;475701;28;1415;-77
2023/09/12 01:27:51;;;;;;;9.40;5.40;;;;;;;;;;482429;28;1016;-77
2023/09/12 01:28:10;;;;;;;10.85;5.75;;;;;;;;;;484618;28;1395;-77
2023/09/12 01:28:29;;;;;;;10.15;5.90;;;;;;;;;;484339;28;1202;-77
2023/09/12 01:28:45;;;;;;;9.57;5.53;;;;;;;;;;484512;28;1187;-77
2023/09/12 01:29:03;;;;;;;9.15;5.32;;;;;;;;;;485269;28;1137;-77
2023/09/12 01:29:21;;;;;;;10.65;5.60;;;;;;;;;;481837;28;2731;-77
2023/09/12 01:29:38;;;;;;;10.23;5.73;;;;;;;;;;482082;28;1196;-77
2023/09/12 01:30:00;;;;;;;7.97;5.65;;;;;;;;;;481539;28;1054;-77
2023/09/12 01:30:21;;;;;;;8.88;5.70;;;;;;;;;;481160;28;1105;-77
2023/09/12 01:30:39;;;;;;;8.30;5.50;;;;;;;;;;482153;28;1145;-77
2023/09/12 01:30:55;;;;;;;7.25;5.20;;;;;;;;;;483030;28;1028;-77
2023/09/12 01:31:15;;;;;;;8.50;5.50;;;;;;;;;;485006;28;1101;-77
2023/09/12 01:31:31;;;;;;;9.27;5.50;;;;;;;;;;484214;28;1173;-78
2023/09/12 01:31:47;;;;;;;7.85;5.30;;;;;;;;;;484065;28;1367;-77
2023/09/12 01:32:03;;;;;;;6.95;5.10;;;;;;;;;;483924;28;1109;-77
2023/09/12 01:32:20;;;;;;;9.88;5.20;;;;;;;;;;480700;28;1302;-77
2023/09/12 01:32:36;;;;;;;9.52;5.25;;;;;;;;;;482943;28;967;-77
2023/09/12 01:32:52;;;;;;;9.60;5.20;;;;;;;;;;481545;28;1231;-76
2023/09/12 01:33:07;;;;;;;9.97;5.40;;;;;;;;;;482037;28;1089;-77
2023/09/12 01:33:23;;;;;;;9.20;5.40;;;;;;;;;;480867;28;1229;-77
2023/09/12 01:33:40;;;;;;;10.27;5.40;;;;;;;;;;482144;28;963;-77
2023/09/12 01:33:57;;;;;;;10.13;5.53;;;;;;;;;;483033;28;1333;-77
2023/09/12 01:34:14;;;;;;;8.25;5.45;;;;;;;;;;482231;28;1271;-77
2023/09/12 01:34:30;;;;;;;7.30;5.28;;;;;;;;;;484323;28;1113;-77
2023/09/12 01:34:46;;;;;;;7.30;5.10;;;;;;;;;;483950;28;1461;-77
2023/09/12 01:35:03;;;;;;;8.30;5.40;;;;;;;;;;484534;28;930;-77
2023/09/12 01:35:19;;;;;;;8.82;5.35;;;;;;;;;;484943;28;1137;-77
2023/09/12 01:35:34;;;;;;;8.57;5.10;;;;;;;;;;484802;28;1098;-77
2023/09/12 01:35:50;;;;;;;9.30;5.47;;;;;;;;;;482535;28;1235;-77
2023/09/12 01:36:05;;;;;;;11.80;5.70;;;;;;;;;;481080;28;1240;-77
2023/09/12 01:36:21;;;;;;;10.67;5.60;;;;;;;;;;480246;28;1255;-77
2023/09/12 01:36:36;;;;;;;8.23;5.55;;;;;;;;;;480533;28;975;-77
2023/09/12 01:36:52;;;;;;;8.23;5.40;;;;;;;;;;480626;28;1550;-77
2023/09/12 01:37:07;;;;;;;8.77;5.60;;;;;;;;;;479023;28;1130;-77
2023/09/12 01:37:23;;;;;;;8.50;5.63;;;;;;;;;;480437;28;1039;-77
2023/09/12 01:37:38;;;;;;;8.30;5.37;;;;;;;;;;479966;28;1214;-77
2023/09/12 01:37:54;;;;;;;8.50;5.38;;;;;;;;;;482411;28;1209;-77
2023/09/12 01:38:10;;;;;;;10.00;5.50;;;;;;;;;;482969;28;1141;-77
2023/09/12 01:38:25;;;;;;;9.77;5.40;;;;;;;;;;484139;28;938;-77
2023/09/12 01:38:41;;;;;;;7.82;5.30;;;;;;;;;;484278;28;1090;-77
2023/09/12 01:38:57;;;;;;;8.63;5.30;;;;;;;;;;482492;28;1218;-77
2023/09/12 01:39:12;;;;;;;8.63;5.38;;;;;;;;;;482892;28;1240;-76
2023/09/12 01:39:28;;;;;;;9.15;5.85;;;;;;;;;;481491;28;1047;-77
2023/09/12 01:39:44;;;;;;;8.70;5.93;;;;;;;;;;481894;28;1123;-77
2023/09/12 01:39:59;;;;;;;8.45;5.50;;;;;;;;;;481942;28;1231;-77
2023/09/12 01:40:16;;;;;;;8.70;5.23;;;;;;;;;;481775;28;1241;-77
2023/09/12 01:40:52;;;;;;;7.88;5.30;;;;;;;;;;474606;28;1038;-77
2023/09/12 01:41:08;;;;;;;7.80;5.32;;;;;;;;;;475649;28;1269;-77
2023/09/12 01:41:23;;;;;;;7.27;5.33;;;;;;;;;;478561;28;1257;-77
2023/09/12 01:41:43;;;;;;;7.43;5.43;;;;;;;;;;485054;28;1140;-77
2023/09/12 01:41:59;;;;;;;10.23;5.60;;;;;;;;;;483342;28;1997;-77
2023/09/12 01:42:20;;;;;;;13.25;5.80;;;;;;;;;;482988;28;1089;-77
2023/09/12 01:42:38;;;;;;;12.27;6.00;;;;;;;;;;480648;28;1313;-77
2023/09/12 01:42:55;;;;;;;10.48;5.95;;;;;;;;;;481030;28;1162;-77
2023/09/12 01:43:13;;;;;;;8.93;5.78;;;;;;;;;;482608;28;1073;-77
2023/09/12 01:43:31;;;;;;;7.90;5.75;;;;;;;;;;482801;28;997;-77
2023/09/12 01:43:50;;;;;;;7.38;5.40;;;;;;;;;;482734;28;1096;-77
2023/09/12 01:44:07;;;;;;;6.15;4.70;;;;;;;;;;481482;28;1143;-77
2023/09/12 01:44:24;;;;;;;6.90;4.72;;;;;;;;;;481566;28;1099;-76
2023/09/12 01:44:44;;;;;;;9.23;5.25;;;;;;;;;;483680;28;1145;-77
2023/09/12 01:45:01;;;;;;;8.52;5.28;;;;;;;;;;482877;28;1018;-77
2023/09/12 01:45:18;;;;;;;6.82;4.95;;;;;;;;;;483633;28;967;-77
2023/09/12 01:45:35;;;;;;;6.43;4.78;;;;;;;;;;471502;29;1349;-76
2023/09/12 01:45:54;;;;;;;5.55;4.60;;;;;;;;;;472498;29;1041;-76